Time;durP1;ratioP1;P1;durP2;ratioP2;P2;SDS_P1;SDS_P2;PMS_P1;PMS_P2;Temp;Humidity;BMP_temperature;BMP_pressure;BME280_temperature;BME280_humidity;BME280_pressure;Samples;Min_cycle;Max_cycle;Signal;HPM_P1;HPM_P2
2022/02/28 00:01:23;;;;;;;4.27;3.10;;;;;;;;;;5043154;28;20445;-58
2022/02/28 00:03:52;;;;;;;5.78;3.47;;;;;;;;;;5031651;28;20304;-58
2022/02/28 00:06:18;;;;;;;5.55;3.22;;;;;;;;;;5031904;28;20131;-59
2022/02/28 00:08:43;;;;;;;5.93;3.35;;;;;;;;;;5024710;28;20112;-59
2022/02/28 00:11:08;;;;;;;5.40;3.35;;;;;;;;;;5042904;28;20620;-59
2022/02/28 00:13:33;;;;;;;5.43;3.53;;;;;;;;;;5042642;28;20744;-59
2022/02/28 00:15:59;;;;;;;5.70;3.03;;;;;;;;;;5043057;28;20722;-59
2022/02/28 00:18:24;;;;;;;4.22;3.13;;;;;;;;;;5042889;28;20271;-59
2022/02/28 00:20:49;;;;;;;6.90;3.42;;;;;;;;;;5059230;28;20033;-59
2022/02/28 00:23:14;;;;;;;4.60;2.90;;;;;;;;;;5042359;28;20029;-59
2022/02/28 00:25:40;;;;;;;4.40;2.87;;;;;;;;;;5042703;28;20367;-59
2022/02/28 00:28:06;;;;;;;4.80;3.20;;;;;;;;;;5042628;28;20299;-58
2022/02/28 00:30:32;;;;;;;4.70;2.95;;;;;;;;;;5041800;28;20064;-59
2022/02/28 00:32:57;;;;;;;5.93;3.28;;;;;;;;;;5042038;28;20031;-59
2022/02/28 00:35:22;;;;;;;5.67;3.20;;;;;;;;;;5042678;28;20017;-59
2022/02/28 00:37:47;;;;;;;4.70;2.83;;;;;;;;;;5041969;28;20264;-58
2022/02/28 00:40:13;;;;;;;5.60;2.97;;;;;;;;;;5042254;28;20271;-59
2022/02/28 00:42:38;;;;;;;5.10;3.30;;;;;;;;;;5041974;28;20255;-57
2022/02/28 00:45:03;;;;;;;4.87;2.97;;;;;;;;;;5042367;28;20040;-59
2022/02/28 00:47:28;;;;;;;5.25;2.80;;;;;;;;;;5042418;28;20256;-59
2022/02/28 00:49:54;;;;;;;4.63;3.00;;;;;;;;;;5031536;28;20397;-59
2022/02/28 00:52:19;;;;;;;4.63;2.83;;;;;;;;;;5035861;28;20101;-59
2022/02/28 00:54:44;;;;;;;4.37;2.73;;;;;;;;;;5041717;28;21070;-59
2022/02/28 00:57:09;;;;;;;4.57;2.53;;;;;;;;;;5042441;28;20271;-59
2022/02/28 00:59:34;;;;;;;4.63;2.73;;;;;;;;;;5042039;28;20271;-59
2022/02/28 01:02:00;;;;;;;4.90;2.67;;;;;;;;;;5041850;28;20281;-59
2022/02/28 01:04:25;;;;;;;4.33;2.90;;;;;;;;;;5042194;28;20070;-58
2022/02/28 01:06:51;;;;;;;5.78;2.88;;;;;;;;;;5040082;28;20112;-59
2022/02/28 01:09:17;;;;;;;6.35;3.05;;;;;;;;;;5036249;28;20030;-59
2022/02/28 01:11:42;;;;;;;4.57;2.57;;;;;;;;;;5036465;28;20036;-60
2022/02/28 01:14:08;;;;;;;4.07;2.60;;;;;;;;;;5047916;28;20259;-58
2022/02/28 01:16:34;;;;;;;4.25;2.40;;;;;;;;;;5045887;28;20284;-59
2022/02/28 01:18:59;;;;;;;4.47;2.50;;;;;;;;;;5042296;28;20048;-59
2022/02/28 01:21:24;;;;;;;4.43;2.67;;;;;;;;;;5041710;28;20124;-59
2022/02/28 01:23:49;;;;;;;3.77;2.20;;;;;;;;;;5041122;28;20432;-60
2022/02/28 01:26:15;;;;;;;4.07;2.57;;;;;;;;;;5041426;28;20279;-59
2022/02/28 01:28:40;;;;;;;4.07;2.50;;;;;;;;;;5040545;28;20033;-58
2022/02/28 01:31:05;;;;;;;3.80;2.20;;;;;;;;;;5025409;28;20551;-57
2022/02/28 01:33:32;;;;;;;3.93;2.37;;;;;;;;;;5041249;28;20682;-58
2022/02/28 01:35:58;;;;;;;4.00;2.53;;;;;;;;;;5041207;28;20039;-58
2022/02/28 01:38:23;;;;;;;4.37;2.27;;;;;;;;;;5040872;28;20589;-59
2022/02/28 01:40:48;;;;;;;3.47;2.30;;;;;;;;;;5040920;28;20398;-59
2022/02/28 01:43:13;;;;;;;3.45;2.17;;;;;;;;;;5039384;28;20311;-59
2022/02/28 01:45:39;;;;;;;3.70;2.28;;;;;;;;;;5040815;28;20036;-58
2022/02/28 01:48:04;;;;;;;3.53;2.43;;;;;;;;;;5040972;28;20032;-58
2022/02/28 01:50:29;;;;;;;4.03;2.25;;;;;;;;;;5025474;28;20326;-58
2022/02/28 01:52:55;;;;;;;3.83;2.30;;;;;;;;;;5028507;28;20025;-59
2022/02/28 01:55:21;;;;;;;3.47;2.10;;;;;;;;;;5031987;28;20294;-59
2022/02/28 01:57:47;;;;;;;4.40;2.40;;;;;;;;;;5041151;28;20048;-58
2022/02/28 02:00:13;;;;;;;3.30;2.13;;;;;;;;;;5040583;28;20037;-59
2022/02/28 02:02:38;;;;;;;3.35;2.15;;;;;;;;;;5055496;28;20025;-59
2022/02/28 02:05:04;;;;;;;4.60;2.17;;;;;;;;;;5040615;28;20484;-58
2022/02/28 02:07:29;;;;;;;3.80;2.25;;;;;;;;;;5055259;28;20053;-58
2022/02/28 02:09:54;;;;;;;3.65;2.22;;;;;;;;;;5040674;28;20028;-58
2022/02/28 02:12:19;;;;;;;3.47;2.00;;;;;;;;;;5039096;28;20124;-59
2022/02/28 02:14:45;;;;;;;4.03;2.17;;;;;;;;;;5039487;28;20347;-58
2022/02/28 02:17:10;;;;;;;4.18;2.17;;;;;;;;;;5040373;28;20824;-59
2022/02/28 02:19:35;;;;;;;3.72;2.35;;;;;;;;;;5040345;28;20554;-58
2022/02/28 02:22:01;;;;;;;3.45;2.10;;;;;;;;;;5040076;28;20114;-58
2022/02/28 02:24:26;;;;;;;2.72;1.80;;;;;;;;;;5040099;28;20787;-59
2022/02/28 02:26:51;;;;;;;2.97;1.70;;;;;;;;;;5039992;28;20100;-58
2022/02/28 02:29:16;;;;;;;3.03;1.83;;;;;;;;;;5039967;28;20342;-58
2022/02/28 02:31:42;;;;;;;2.67;1.83;;;;;;;;;;5040214;28;20060;-58
2022/02/28 02:34:07;;;;;;;3.80;2.15;;;;;;;;;;5028899;28;20349;-59
2022/02/28 02:36:32;;;;;;;3.60;2.00;;;;;;;;;;5036537;28;20488;-58
2022/02/28 02:38:58;;;;;;;2.63;1.73;;;;;;;;;;5040489;28;20267;-59
2022/02/28 02:41:23;;;;;;;2.58;1.65;;;;;;;;;;5039898;28;20120;-58
2022/02/28 02:43:48;;;;;;;3.80;2.17;;;;;;;;;;5040265;28;20542;-58
2022/02/28 02:46:13;;;;;;;2.50;1.67;;;;;;;;;;5039701;28;20036;-57
2022/02/28 02:48:39;;;;;;;3.75;2.03;;;;;;;;;;5055955;28;20116;-59
2022/02/28 02:51:04;;;;;;;3.67;1.70;;;;;;;;;;5040156;28;20033;-59
2022/02/28 02:53:29;;;;;;;3.57;1.70;;;;;;;;;;5032694;28;20272;-58
2022/02/28 02:55:54;;;;;;;2.85;1.90;;;;;;;;;;5030255;28;20782;-58
2022/02/28 02:58:20;;;;;;;3.07;1.80;;;;;;;;;;5038721;28;20116;-58
2022/02/28 03:00:46;;;;;;;2.38;1.75;;;;;;;;;;5039645;28;20346;-59
2022/02/28 03:03:11;;;;;;;2.85;1.80;;;;;;;;;;5040153;28;20051;-60
2022/02/28 03:05:37;;;;;;;3.42;1.90;;;;;;;;;;5055214;28;20032;-59
2022/02/28 03:08:02;;;;;;;3.20;1.83;;;;;;;;;;5039626;28;20053;-58
2022/02/28 03:10:27;;;;;;;3.03;2.08;;;;;;;;;;5039858;28;20036;-59
2022/02/28 03:12:52;;;;;;;2.67;1.77;;;;;;;;;;5037878;28;20033;-58
2022/02/28 03:15:18;;;;;;;2.73;1.70;;;;;;;;;;5032508;28;20278;-59
2022/02/28 03:17:43;;;;;;;2.50;1.85;;;;;;;;;;5064098;28;20285;-59
2022/02/28 03:20:08;;;;;;;2.28;1.40;;;;;;;;;;5062174;28;20415;-59
2022/02/28 03:22:34;;;;;;;2.95;1.83;;;;;;;;;;5047529;28;20021;-60
2022/02/28 03:24:59;;;;;;;2.42;1.48;;;;;;;;;;5043606;28;20186;-59
2022/02/28 03:27:24;;;;;;;2.45;1.65;;;;;;;;;;5043665;28;20036;-59
2022/02/28 03:29:49;;;;;;;3.07;2.00;;;;;;;;;;5043740;28;20838;-59
2022/02/28 03:32:15;;;;;;;2.57;1.60;;;;;;;;;;5043486;28;20666;-60
2022/02/28 03:34:40;;;;;;;3.63;1.57;;;;;;;;;;5027319;28;20431;-60
2022/02/28 03:37:05;;;;;;;2.50;1.63;;;;;;;;;;5041601;28;20510;-59
2022/02/28 03:39:30;;;;;;;2.30;1.77;;;;;;;;;;5033372;28;21545;-61
2022/02/28 03:41:56;;;;;;;2.45;1.52;;;;;;;;;;5033249;28;20549;-59
2022/02/28 03:44:21;;;;;;;2.17;1.50;;;;;;;;;;5043404;28;20032;-60
2022/02/28 03:46:47;;;;;;;3.35;1.60;;;;;;;;;;5043230;28;20025;-60
2022/02/28 03:49:12;;;;;;;2.88;1.63;;;;;;;;;;5043544;28;20017;-60
2022/02/28 03:51:37;;;;;;;2.07;1.43;;;;;;;;;;5042835;28;20065;-59
2022/02/28 03:54:03;;;;;;;2.37;1.40;;;;;;;;;;5043135;28;20049;-60
2022/02/28 03:56:28;;;;;;;2.55;1.60;;;;;;;;;;5042820;28;20275;-60
2022/02/28 03:58:53;;;;;;;2.22;1.63;;;;;;;;;;5040117;28;20060;-60
2022/02/28 04:01:19;;;;;;;2.53;1.63;;;;;;;;;;5027989;28;20028;-59
2022/02/28 04:03:44;;;;;;;2.70;1.50;;;;;;;;;;5042639;28;20337;-60
2022/02/28 04:06:09;;;;;;;2.05;1.40;;;;;;;;;;5042236;28;20778;-60
2022/02/28 04:08:35;;;;;;;2.63;1.58;;;;;;;;;;5042650;28;20044;-59
2022/02/28 04:11:00;;;;;;;2.40;1.60;;;;;;;;;;5042669;28;20037;-59
2022/02/28 04:13:25;;;;;;;1.75;1.27;;;;;;;;;;5042944;28;20260;-59
2022/02/28 04:15:51;;;;;;;2.17;1.40;;;;;;;;;;5042380;28;20158;-58
2022/02/28 04:18:16;;;;;;;2.67;1.70;;;;;;;;;;5043201;28;20108;-59
2022/02/28 04:20:41;;;;;;;2.20;1.50;;;;;;;;;;5026816;28;20676;-59
2022/02/28 04:23:06;;;;;;;2.58;1.20;;;;;;;;;;5041661;28;20260;-59
2022/02/28 04:25:31;;;;;;;2.20;1.40;;;;;;;;;;5041841;28;20496;-59
2022/02/28 04:27:57;;;;;;;2.55;1.52;;;;;;;;;;5057565;28;20801;-60
2022/02/28 04:30:22;;;;;;;2.10;1.20;;;;;;;;;;5042230;28;20073;-60
2022/02/28 04:32:47;;;;;;;2.17;1.47;;;;;;;;;;5042197;28;20267;-59
2022/02/28 04:35:13;;;;;;;2.78;1.52;;;;;;;;;;5042428;28;20277;-59
2022/02/28 04:37:38;;;;;;;1.90;1.30;;;;;;;;;;5042184;28;20028;-59
2022/02/28 04:40:04;;;;;;;2.20;1.37;;;;;;;;;;5031707;28;20025;-60
2022/02/28 04:42:29;;;;;;;2.25;1.42;;;;;;;;;;5036672;28;20271;-59
2022/02/28 04:44:54;;;;;;;2.20;1.30;;;;;;;;;;5042581;28;20578;-59
2022/02/28 04:47:19;;;;;;;2.47;1.43;;;;;;;;;;5042644;28;20892;-60
2022/02/28 04:49:45;;;;;;;2.93;1.50;;;;;;;;;;5042072;28;20279;-59
2022/02/28 04:52:11;;;;;;;1.90;1.30;;;;;;;;;;5041079;28;20298;-60
2022/02/28 04:54:36;;;;;;;2.33;1.30;;;;;;;;;;5041989;28;20471;-59
2022/02/28 04:57:01;;;;;;;1.80;1.30;;;;;;;;;;5041961;28;20056;-59
2022/02/28 04:59:26;;;;;;;1.97;1.13;;;;;;;;;;5035892;28;20376;-58
2022/02/28 05:01:52;;;;;;;1.77;1.20;;;;;;;;;;5030974;28;20785;-59
2022/02/28 05:04:17;;;;;;;2.20;1.40;;;;;;;;;;5040488;28;20025;-59
2022/02/28 05:06:42;;;;;;;2.70;1.17;;;;;;;;;;5041377;28;20378;-58
2022/02/28 05:09:07;;;;;;;2.40;1.27;;;;;;;;;;5041253;28;20306;-60
2022/02/28 05:11:32;;;;;;;2.30;1.50;;;;;;;;;;5041600;28;20717;-59
2022/02/28 05:13:59;;;;;;;2.00;1.30;;;;;;;;;;5041605;28;20097;-59
2022/02/28 05:16:24;;;;;;;3.33;1.65;;;;;;;;;;5041440;28;20033;-59
2022/02/28 05:18:50;;;;;;;2.63;1.35;;;;;;;;;;5039063;28;20419;-59
2022/02/28 05:21:15;;;;;;;1.77;1.20;;;;;;;;;;5024483;28;20048;-59
2022/02/28 05:23:40;;;;;;;2.23;1.33;;;;;;;;;;5035553;28;20820;-59
2022/02/28 05:26:05;;;;;;;2.00;1.23;;;;;;;;;;5021582;28;20302;-59
2022/02/28 05:28:31;;;;;;;2.00;1.33;;;;;;;;;;5036204;28;20361;-59
2022/02/28 05:30:56;;;;;;;2.73;1.07;;;;;;;;;;5041118;28;20357;-59
2022/02/28 05:33:22;;;;;;;8.57;1.70;;;;;;;;;;5041202;28;20096;-59
2022/02/28 05:35:47;;;;;;;4.18;1.88;;;;;;;;;;5041107;28;20120;-59
2022/02/28 05:38:13;;;;;;;2.40;1.30;;;;;;;;;;5033973;28;20014;-59
2022/02/28 05:40:38;;;;;;;5.03;1.30;;;;;;;;;;5024752;28;20263;-60
2022/02/28 05:43:04;;;;;;;5.57;1.60;;;;;;;;;;5021776;28;20509;-60
2022/02/28 05:45:29;;;;;;;6.47;1.73;;;;;;;;;;5018544;28;20040;-61
2022/02/28 05:47:54;;;;;;;8.85;1.67;;;;;;;;;;5019228;28;20024;-61
2022/02/28 05:50:19;;;;;;;6.70;1.87;;;;;;;;;;5019301;28;20041;-60
2022/02/28 05:52:45;;;;;;;6.30;1.73;;;;;;;;;;5018713;28;20555;-59
2022/02/28 05:55:11;;;;;;;11.35;1.95;;;;;;;;;;5019093;28;20068;-61
2022/02/28 05:57:36;;;;;;;10.63;1.80;;;;;;;;;;5034246;28;20507;-61
2022/02/28 06:00:02;;;;;;;7.82;1.77;;;;;;;;;;5018880;28;20033;-64
2022/02/28 06:02:27;;;;;;;5.63;1.98;;;;;;;;;;5020465;28;20056;-61
2022/02/28 06:04:53;;;;;;;7.30;1.80;;;;;;;;;;5009628;28;20576;-60
2022/02/28 06:07:18;;;;;;;9.23;2.57;;;;;;;;;;5025297;28;20310;-60
2022/02/28 06:09:43;;;;;;;10.63;1.50;;;;;;;;;;5040264;28;20029;-58
2022/02/28 06:12:08;;;;;;;9.70;1.90;;;;;;;;;;5039922;28;20291;-59
2022/02/28 06:14:34;;;;;;;8.30;1.83;;;;;;;;;;5040076;28;20305;-60
2022/02/28 06:16:59;;;;;;;7.37;1.93;;;;;;;;;;5039787;28;20575;-60
2022/02/28 06:19:26;;;;;;;11.17;2.10;;;;;;;;;;5037575;28;20286;-59
2022/02/28 06:21:51;;;;;;;10.30;2.00;;;;;;;;;;5030534;28;20267;-59
2022/02/28 06:24:16;;;;;;;11.83;2.03;;;;;;;;;;5038106;28;20040;-59
2022/02/28 06:26:41;;;;;;;11.40;2.17;;;;;;;;;;5038746;28;20271;-59
2022/02/28 06:29:07;;;;;;;11.00;2.20;;;;;;;;;;5039245;28;20027;-58
2022/02/28 06:31:32;;;;;;;8.13;2.40;;;;;;;;;;5036065;28;20694;-57
2022/02/28 06:33:57;;;;;;;7.68;2.35;;;;;;;;;;5039331;28;20766;-58
2022/02/28 06:36:23;;;;;;;8.73;2.20;;;;;;;;;;5039371;28;20058;-60
2022/02/28 06:38:48;;;;;;;9.60;2.17;;;;;;;;;;5036985;28;20330;-60
2022/02/28 06:41:13;;;;;;;11.07;2.17;;;;;;;;;;5039052;28;20032;-61
2022/02/28 06:43:38;;;;;;;6.40;2.00;;;;;;;;;;5038950;28;20021;-60
2022/02/28 06:46:04;;;;;;;9.70;2.43;;;;;;;;;;5028722;28;20032;-62
2022/02/28 06:48:29;;;;;;;9.53;2.10;;;;;;;;;;5028880;28;20045;-60
2022/02/28 06:50:54;;;;;;;10.10;2.30;;;;;;;;;;5025529;28;20030;-60
2022/02/28 06:53:22;;;;;;;7.33;1.87;;;;;;;;;;5042008;28;20025;-60
2022/02/28 06:55:47;;;;;;;12.55;2.92;;;;;;;;;;5051453;28;20415;-59
2022/02/28 06:58:12;;;;;;;9.88;2.78;;;;;;;;;;5036894;28;20549;-61
2022/02/28 07:00:38;;;;;;;10.77;2.67;;;;;;;;;;5039225;28;20107;-61
2022/02/28 07:03:03;;;;;;;9.73;2.40;;;;;;;;;;5043712;28;20071;-60
2022/02/28 07:05:28;;;;;;;7.97;2.25;;;;;;;;;;5037652;28;20330;-59
2022/02/28 07:07:53;;;;;;;10.70;2.10;;;;;;;;;;5035205;28;20041;-59
2022/02/28 07:10:19;;;;;;;7.63;2.13;;;;;;;;;;5040391;28;20291;-59
2022/02/28 07:12:44;;;;;;;9.60;2.53;;;;;;;;;;5041693;28;20290;-60
2022/02/28 07:15:09;;;;;;;8.18;2.00;;;;;;;;;;5028376;28;20032;-60
2022/02/28 07:17:34;;;;;;;10.13;2.50;;;;;;;;;;5043690;28;20017;-58
2022/02/28 07:20:00;;;;;;;12.57;2.85;;;;;;;;;;5043684;28;20282;-61
2022/02/28 07:22:25;;;;;;;9.67;2.30;;;;;;;;;;5037812;28;20022;-59
2022/02/28 07:24:50;;;;;;;8.40;1.93;;;;;;;;;;5039061;28;20251;-60
2022/02/28 07:27:15;;;;;;;12.47;2.37;;;;;;;;;;5024583;28;20021;-60
2022/02/28 07:29:41;;;;;;;7.80;2.40;;;;;;;;;;5027481;28;20370;-60
2022/02/28 07:32:06;;;;;;;8.97;2.20;;;;;;;;;;5032602;28;20124;-59
2022/02/28 07:34:31;;;;;;;12.52;2.08;;;;;;;;;;5037633;28;20056;-59
2022/02/28 07:36:56;;;;;;;6.57;2.00;;;;;;;;;;5043574;28;20037;-59
2022/02/28 07:39:21;;;;;;;12.13;2.80;;;;;;;;;;5043394;28;20028;-59
2022/02/28 07:41:47;;;;;;;10.33;2.10;;;;;;;;;;5044297;28;20036;-59
2022/02/28 07:44:13;;;;;;;4.87;1.93;;;;;;;;;;5046526;28;20108;-59
2022/02/28 07:46:38;;;;;;;7.47;2.13;;;;;;;;;;5030184;28;20033;-59
2022/02/28 07:49:03;;;;;;;5.63;1.90;;;;;;;;;;5027195;28;20077;-60
2022/02/28 07:51:29;;;;;;;9.40;2.00;;;;;;;;;;5026127;28;20144;-59
2022/02/28 07:53:54;;;;;;;9.80;2.47;;;;;;;;;;5025330;28;20674;-59
2022/02/28 07:56:19;;;;;;;6.73;1.93;;;;;;;;;;5024927;28;20112;-59
2022/02/28 07:58:44;;;;;;;6.37;1.80;;;;;;;;;;5022342;28;20263;-59
2022/02/28 08:01:10;;;;;;;7.57;1.90;;;;;;;;;;5026836;28;20267;-59
2022/02/28 08:03:35;;;;;;;8.83;2.30;;;;;;;;;;5024973;28;20464;-59
2022/02/28 08:06:00;;;;;;;12.10;2.70;;;;;;;;;;5023090;28;20268;-59
2022/02/28 08:08:25;;;;;;;8.23;2.63;;;;;;;;;;5026979;28;20434;-58
2022/02/28 08:10:50;;;;;;;6.17;1.93;;;;;;;;;;5024923;28;20116;-59
2022/02/28 08:13:16;;;;;;;5.43;1.97;;;;;;;;;;5026045;28;20341;-59
2022/02/28 08:15:41;;;;;;;9.50;2.13;;;;;;;;;;5025760;28;20375;-58
2022/02/28 08:18:06;;;;;;;7.57;2.20;;;;;;;;;;5024218;28;20268;-59
2022/02/28 08:20:32;;;;;;;8.55;2.25;;;;;;;;;;5023128;28;20836;-58
2022/02/28 08:22:58;;;;;;;7.13;2.15;;;;;;;;;;5022025;28;20037;-58
2022/02/28 08:25:23;;;;;;;11.13;2.30;;;;;;;;;;5024730;28;20478;-59
2022/02/28 08:27:49;;;;;;;9.03;2.50;;;;;;;;;;5024331;28;20022;-58
2022/02/28 08:30:14;;;;;;;7.03;2.47;;;;;;;;;;5021523;28;20394;-58
2022/02/28 08:32:40;;;;;;;6.55;2.50;;;;;;;;;;5024555;28;20416;-59
2022/02/28 08:35:05;;;;;;;9.07;2.77;;;;;;;;;;5027209;28;20480;-59
2022/02/28 08:37:30;;;;;;;6.15;2.20;;;;;;;;;;5020958;28;20029;-58
2022/02/28 08:39:55;;;;;;;7.10;2.60;;;;;;;;;;5024734;28;20033;-59
2022/02/28 08:42:21;;;;;;;6.93;2.80;;;;;;;;;;5027011;28;20287;-58
2022/02/28 08:44:46;;;;;;;6.22;2.40;;;;;;;;;;5023958;28;20280;-58
2022/02/28 08:47:11;;;;;;;6.33;2.57;;;;;;;;;;5020816;28;20036;-59
2022/02/28 08:49:36;;;;;;;7.38;2.60;;;;;;;;;;5021042;28;20036;-59
2022/02/28 08:52:04;;;;;;;11.10;3.00;;;;;;;;;;5021418;28;20033;-59
2022/02/28 08:54:29;;;;;;;6.85;2.90;;;;;;;;;;5019534;28;20032;-59
2022/02/28 08:56:55;;;;;;;7.55;2.50;;;;;;;;;;5022859;28;20483;-58
2022/02/28 08:59:20;;;;;;;7.03;2.90;;;;;;;;;;5020898;28;20024;-59
2022/02/28 09:01:45;;;;;;;7.43;2.83;;;;;;;;;;5021067;28;20265;-58
2022/02/28 09:04:10;;;;;;;7.50;2.80;;;;;;;;;;5020812;28;20268;-59
2022/02/28 09:06:36;;;;;;;7.57;2.60;;;;;;;;;;5020785;28;20365;-59
2022/02/28 09:09:01;;;;;;;7.10;2.73;;;;;;;;;;5020813;28;20032;-58
2022/02/28 09:11:26;;;;;;;5.95;2.58;;;;;;;;;;5022945;28;20648;-59
2022/02/28 09:13:52;;;;;;;7.57;2.35;;;;;;;;;;5052217;28;20021;-59
2022/02/28 09:16:17;;;;;;;5.97;2.00;;;;;;;;;;5022684;28;20396;-59
2022/02/28 09:18:42;;;;;;;4.75;2.28;;;;;;;;;;5022502;28;20017;-61
2022/02/28 09:21:08;;;;;;;8.05;2.97;;;;;;;;;;5023522;28;20053;-60
2022/02/28 09:23:33;;;;;;;4.67;2.47;;;;;;;;;;5021064;28;20027;-60
2022/02/28 09:25:58;;;;;;;6.53;2.50;;;;;;;;;;5021384;28;20300;-60
2022/02/28 09:28:24;;;;;;;8.02;2.83;;;;;;;;;;5020937;28;20496;-60
2022/02/28 09:30:49;;;;;;;6.15;2.22;;;;;;;;;;5021231;28;20527;-60
2022/02/28 09:33:14;;;;;;;5.73;2.70;;;;;;;;;;5022330;28;20024;-60
2022/02/28 09:35:40;;;;;;;4.15;2.08;;;;;;;;;;5019603;28;20283;-59
2022/02/28 09:38:05;;;;;;;5.28;2.30;;;;;;;;;;5019960;28;20524;-60
2022/02/28 09:40:30;;;;;;;7.27;2.30;;;;;;;;;;5021044;28;20021;-59
2022/02/28 09:42:56;;;;;;;5.18;2.10;;;;;;;;;;5021812;28;20342;-58
2022/02/28 09:45:22;;;;;;;6.47;2.65;;;;;;;;;;5021082;28;20021;-58
2022/02/28 09:47:48;;;;;;;4.93;2.53;;;;;;;;;;5036968;28;20574;-58
2022/02/28 09:50:13;;;;;;;5.72;2.42;;;;;;;;;;5032018;28;20037;-58
2022/02/28 09:52:38;;;;;;;4.83;2.57;;;;;;;;;;5041410;28;20071;-59
2022/02/28 09:55:04;;;;;;;6.50;2.88;;;;;;;;;;5053640;28;20106;-58
2022/02/28 09:57:29;;;;;;;5.82;2.60;;;;;;;;;;5025850;28;21047;-58
2022/02/28 09:59:54;;;;;;;5.70;2.67;;;;;;;;;;5029346;28;20055;-59
2022/02/28 10:02:19;;;;;;;7.93;3.10;;;;;;;;;;5032137;28;20017;-59
2022/02/28 10:04:45;;;;;;;5.75;2.20;;;;;;;;;;5040544;28;20122;-59
2022/02/28 10:07:20;;;;;;;5.15;2.30;;;;;;;;;;5036165;28;20099;-59
2022/02/28 10:09:46;;;;;;;3.67;1.90;;;;;;;;;;5021524;28;20025;-60
2022/02/28 10:12:11;;;;;;;5.47;2.40;;;;;;;;;;5024730;28;20040;-61
2022/02/28 10:14:36;;;;;;;5.28;2.40;;;;;;;;;;5034677;28;20308;-60
2022/02/28 10:17:02;;;;;;;4.47;2.40;;;;;;;;;;5023901;28;20130;-60
2022/02/28 10:19:30;;;;;;;4.70;2.17;;;;;;;;;;5055830;28;20170;-60
2022/02/28 10:21:56;;;;;;;4.05;2.10;;;;;;;;;;5040765;28;20032;-61
2022/02/28 10:24:27;;;;;;;4.30;1.88;;;;;;;;;;5039109;28;20024;-61
2022/02/28 10:26:57;;;;;;;6.47;2.33;;;;;;;;;;5040176;28;20029;-61
2022/02/28 10:29:22;;;;;;;4.87;2.37;;;;;;;;;;5040033;28;20041;-61
2022/02/28 10:31:47;;;;;;;5.13;1.90;;;;;;;;;;5038063;28;20435;-56
2022/02/28 10:34:20;;;;;;;4.43;2.20;;;;;;;;;;5040011;28;20459;-60
2022/02/28 10:36:57;;;;;;;4.20;2.17;;;;;;;;;;5024684;28;20029;-59
2022/02/28 10:39:24;;;;;;;3.30;2.00;;;;;;;;;;5019499;28;20514;-59
2022/02/28 10:41:49;;;;;;;4.70;2.35;;;;;;;;;;5025529;28;20803;-59
2022/02/28 10:44:15;;;;;;;3.65;1.92;;;;;;;;;;5031688;28;20024;-58
2022/02/28 10:46:43;;;;;;;3.70;1.90;;;;;;;;;;5054663;28;20021;-58
2022/02/28 10:49:11;;;;;;;4.20;2.30;;;;;;;;;;5028164;28;20819;-59
2022/02/28 10:51:43;;;;;;;4.68;2.30;;;;;;;;;;5025139;28;20552;-61
2022/02/28 10:54:09;;;;;;;4.70;2.50;;;;;;;;;;5029651;28;20053;-61
2022/02/28 10:56:47;;;;;;;4.18;1.90;;;;;;;;;;5038233;28;20017;-59
2022/02/28 10:59:13;;;;;;;4.97;2.17;;;;;;;;;;5029818;28;20059;-61
2022/02/28 11:01:42;;;;;;;3.60;2.03;;;;;;;;;;5036276;28;20029;-61
2022/02/28 11:04:10;;;;;;;4.23;2.30;;;;;;;;;;5037127;28;20033;-62
2022/02/28 11:06:35;;;;;;;4.60;1.92;;;;;;;;;;5035539;28;20053;-61
2022/02/28 11:09:04;;;;;;;3.60;2.10;;;;;;;;;;5024187;28;20024;-60
2022/02/28 11:11:29;;;;;;;4.28;2.10;;;;;;;;;;5020591;28;20102;-60
2022/02/28 11:13:54;;;;;;;4.97;2.10;;;;;;;;;;5021051;28;20423;-60
2022/02/28 11:16:20;;;;;;;3.57;2.40;;;;;;;;;;5020479;28;20451;-62
2022/02/28 11:18:45;;;;;;;4.15;2.10;;;;;;;;;;5035871;28;20727;-61
2022/02/28 11:21:12;;;;;;;4.03;2.05;;;;;;;;;;5021598;28;20508;-59
2022/02/28 11:23:41;;;;;;;5.50;2.53;;;;;;;;;;5025090;28;20100;-66
2022/02/28 11:26:06;;;;;;;4.20;2.20;;;;;;;;;;5039864;28;20083;-61
2022/02/28 11:28:31;;;;;;;3.88;2.10;;;;;;;;;;5039703;28;20593;-62
2022/02/28 11:31:03;;;;;;;4.03;2.30;;;;;;;;;;5039196;28;20037;-63
2022/02/28 11:33:29;;;;;;;3.70;2.05;;;;;;;;;;5055552;28;20316;-63
2022/02/28 11:35:54;;;;;;;5.15;2.00;;;;;;;;;;5041426;28;20445;-59
2022/02/28 11:38:19;;;;;;;5.13;2.53;;;;;;;;;;5042838;28;20028;-61
2022/02/28 11:40:44;;;;;;;3.70;2.03;;;;;;;;;;5043749;28;20025;-60
2022/02/28 11:43:16;;;;;;;3.77;2.37;;;;;;;;;;5042957;28;20024;-61
2022/02/28 11:45:59;;;;;;;4.63;2.30;;;;;;;;;;5031998;28;20052;-59
2022/02/28 11:48:34;;;;;;;4.32;2.30;;;;;;;;;;5043579;28;20044;-61
2022/02/28 11:51:03;;;;;;;3.72;2.20;;;;;;;;;;5042391;28;20059;-61
2022/02/28 11:53:36;;;;;;;3.40;2.28;;;;;;;;;;5058321;28;20417;-59
2022/02/28 11:56:02;;;;;;;4.13;2.42;;;;;;;;;;5058383;28;20084;-58
2022/02/28 11:58:27;;;;;;;4.65;2.28;;;;;;;;;;5042832;28;20036;-60
2022/02/28 12:01:06;;;;;;;4.30;2.30;;;;;;;;;;5041873;28;20024;-59
2022/02/28 12:03:31;;;;;;;4.40;2.63;;;;;;;;;;5041541;28;21129;-60
2022/02/28 12:05:58;;;;;;;4.40;2.40;;;;;;;;;;5040158;28;20028;-59
2022/02/28 12:08:44;;;;;;;4.22;2.20;;;;;;;;;;5024760;28;20346;-59
2022/02/28 12:11:20;;;;;;;3.70;1.83;;;;;;;;;;5041184;28;20040;-60
2022/02/28 12:13:45;;;;;;;4.40;2.05;;;;;;;;;;5042200;28;20446;-59
2022/02/28 12:17:31;;;;;;;5.07;2.67;;;;;;;;;;5041136;28;20039;-59
2022/02/28 12:19:12;;;;;;;3.05;2.10;;;;;;;;;;5041990;28;20694;-60
2022/02/28 12:21:38;;;;;;;4.18;2.30;;;;;;;;;;5036370;28;20102;-59
2022/02/28 12:24:03;;;;;;;3.97;2.22;;;;;;;;;;5042398;28;20420;-58
2022/02/28 12:26:28;;;;;;;3.40;2.20;;;;;;;;;;5033087;28;20116;-59
2022/02/28 12:28:53;;;;;;;4.83;2.57;;;;;;;;;;5025766;28;20037;-60
2022/02/28 12:31:32;;;;;;;3.88;2.20;;;;;;;;;;5042255;28;20911;-59
2022/02/28 12:34:00;;;;;;;3.85;2.25;;;;;;;;;;5028377;28;20038;-59
2022/02/28 12:36:33;;;;;;;3.47;2.30;;;;;;;;;;5025018;28;20462;-59
2022/02/28 12:38:59;;;;;;;3.47;2.33;;;;;;;;;;5022008;28;20100;-59
2022/02/28 12:41:29;;;;;;;4.25;2.10;;;;;;;;;;5022421;28;20037;-59
2022/02/28 12:43:55;;;;;;;3.63;2.20;;;;;;;;;;5022575;28;20407;-59
2022/02/28 12:46:20;;;;;;;4.05;2.40;;;;;;;;;;5021839;28;20021;-59
2022/02/28 12:48:45;;;;;;;4.30;2.67;;;;;;;;;;5021281;28;20044;-59
2022/02/28 12:51:11;;;;;;;4.18;2.42;;;;;;;;;;5024781;28;20108;-60
2022/02/28 12:53:37;;;;;;;4.38;2.25;;;;;;;;;;5024570;28;20052;-60
2022/02/28 12:56:06;;;;;;;4.80;2.47;;;;;;;;;;5023907;28;20025;-61
2022/02/28 12:58:32;;;;;;;4.65;2.60;;;;;;;;;;5024221;28;20503;-59
2022/02/28 13:01:16;;;;;;;5.38;2.78;;;;;;;;;;5023876;28;20025;-58
2022/02/28 13:03:42;;;;;;;4.28;2.60;;;;;;;;;;5024830;28;20025;-61
2022/02/28 13:06:08;;;;;;;5.18;2.97;;;;;;;;;;5023696;28;20025;-60
2022/02/28 13:08:34;;;;;;;4.97;2.63;;;;;;;;;;5028352;28;20559;-61
2022/02/28 13:11:11;;;;;;;4.78;2.50;;;;;;;;;;5040907;28;20025;-59
2022/02/28 13:13:39;;;;;;;3.88;2.30;;;;;;;;;;5042660;28;20072;-59
2022/02/28 13:16:05;;;;;;;3.72;2.17;;;;;;;;;;5038694;28;20009;-60
2022/02/28 13:18:30;;;;;;;4.90;2.55;;;;;;;;;;5028876;28;20028;-60
2022/02/28 13:20:56;;;;;;;4.20;2.50;;;;;;;;;;5042430;28;20028;-60
2022/02/28 13:23:21;;;;;;;3.92;2.78;;;;;;;;;;5045177;28;20501;-61
2022/02/28 13:25:50;;;;;;;5.07;2.50;;;;;;;;;;5061139;28;20044;-59
2022/02/28 13:28:15;;;;;;;6.05;3.00;;;;;;;;;;5031123;28;20389;-60
2022/02/28 13:30:40;;;;;;;4.53;2.67;;;;;;;;;;5026815;28;20124;-60
2022/02/28 13:33:05;;;;;;;4.10;2.70;;;;;;;;;;5023773;28;20650;-59
2022/02/28 13:35:31;;;;;;;4.13;2.73;;;;;;;;;;5037881;28;20267;-59
2022/02/28 13:37:56;;;;;;;4.80;2.63;;;;;;;;;;5021046;28;20009;-60
2022/02/28 13:40:23;;;;;;;3.97;2.40;;;;;;;;;;5027685;28;20280;-60
2022/02/28 13:42:48;;;;;;;4.22;2.55;;;;;;;;;;5020749;28;20288;-60
2022/02/28 13:45:19;;;;;;;4.43;2.50;;;;;;;;;;5023879;28;20088;-61
2022/02/28 13:47:44;;;;;;;5.50;2.78;;;;;;;;;;5023323;28;20561;-60
2022/02/28 13:50:10;;;;;;;4.95;2.60;;;;;;;;;;5020676;28;20037;-58
2022/02/28 13:52:35;;;;;;;4.22;2.45;;;;;;;;;;5026278;28;20571;-60
2022/02/28 13:55:07;;;;;;;4.03;2.30;;;;;;;;;;5020622;28;20013;-59
2022/02/28 13:57:34;;;;;;;3.50;2.30;;;;;;;;;;5025443;28;20288;-59
2022/02/28 14:00:14;;;;;;;4.13;2.30;;;;;;;;;;5029789;28;20005;-61
2022/02/28 14:02:49;;;;;;;3.85;2.60;;;;;;;;;;5040863;28;20028;-59
2022/02/28 14:05:14;;;;;;;3.65;2.20;;;;;;;;;;5027298;28;20021;-60
2022/02/28 14:07:39;;;;;;;3.90;2.60;;;;;;;;;;5023285;28;20061;-60
2022/02/28 14:10:05;;;;;;;4.03;2.40;;;;;;;;;;5023058;28;20290;-60
2022/02/28 14:12:31;;;;;;;4.40;2.53;;;;;;;;;;5018418;28;20041;-60
2022/02/28 14:15:08;;;;;;;3.28;2.33;;;;;;;;;;5022400;28;20021;-60
2022/02/28 14:17:33;;;;;;;2.83;1.85;;;;;;;;;;5020180;28;20049;-60
2022/02/28 14:20:10;;;;;;;3.40;2.17;;;;;;;;;;5029220;28;20037;-60
2022/02/28 14:22:36;;;;;;;3.40;2.15;;;;;;;;;;5038084;28;20021;-61
2022/02/28 14:25:01;;;;;;;3.77;2.20;;;;;;;;;;5072388;28;20017;-60
2022/02/28 14:27:29;;;;;;;3.60;2.00;;;;;;;;;;5060058;28;20013;-59
2022/02/28 14:29:58;;;;;;;3.42;2.10;;;;;;;;;;5051238;28;20317;-59
2022/02/28 14:32:24;;;;;;;4.47;2.20;;;;;;;;;;5040433;28;20029;-59
2022/02/28 14:34:49;;;;;;;3.22;1.70;;;;;;;;;;5025012;28;20010;-59
2022/02/28 14:37:14;;;;;;;3.78;2.08;;;;;;;;;;5040519;28;20021;-59